sensor_id;sensor_type;location;lat;lon;timestamp;pressure;altitude;pressure_sealevel;temperature;humidity
46583;BME280;32309;48.858;8.252;2023-09-07T00:01:07;100524.66;;;17.88;69.02
46583;BME280;32309;48.858;8.252;2023-09-07T00:03:17;100523.56;;;17.90;66.70
46583;BME280;32309;48.858;8.252;2023-09-07T00:05:18;100519.06;;;17.92;69.08
46583;BME280;32309;48.858;8.252;2023-09-07T00:07:27;100520.19;;;18.00;68.71
46583;BME280;32309;48.858;8.252;2023-09-07T00:09:30;100516.63;;;18.01;67.89
46583;BME280;32309;48.858;8.252;2023-09-07T00:11:31;100520.31;;;17.98;67.83
46583;BME280;32309;48.858;8.252;2023-09-07T00:13:40;100517.84;;;17.96;68.84
46583;BME280;32309;48.858;8.252;2023-09-07T00:15:48;100520.47;;;17.96;66.49
46583;BME280;32309;48.858;8.252;2023-09-07T00:17:48;100523.09;;;17.96;67.68
46583;BME280;32309;48.858;8.252;2023-09-07T00:19:53;100527.38;;;17.98;67.09
46583;BME280;32309;48.858;8.252;2023-09-07T00:21:56;100518.66;;;17.97;67.74
46583;BME280;32309;48.858;8.252;2023-09-07T00:24:00;100519.97;;;17.91;67.76
46583;BME280;32309;48.858;8.252;2023-09-07T00:26:05;100520.13;;;17.90;67.06
46583;BME280;32309;48.858;8.252;2023-09-07T00:28:10;100517.75;;;17.87;68.14
46583;BME280;32309;48.858;8.252;2023-09-07T00:30:22;100521.84;;;17.79;68.92
46583;BME280;32309;48.858;8.252;2023-09-07T00:32:33;100516.59;;;17.79;69.02
46583;BME280;32309;48.858;8.252;2023-09-07T00:34:41;100511.38;;;17.79;67.94
46583;BME280;32309;48.858;8.252;2023-09-07T00:36:44;100508.03;;;17.77;68.11
46583;BME280;32309;48.858;8.252;2023-09-07T00:38:55;100510.34;;;17.71;68.23
46583;BME280;32309;48.858;8.252;2023-09-07T00:41:04;100507.72;;;17.71;67.76
46583;BME280;32309;48.858;8.252;2023-09-07T00:43:04;100505.09;;;17.71;66.17
46583;BME280;32309;48.858;8.252;2023-09-07T00:45:05;100500.50;;;17.63;67.81
46583;BME280;32309;48.858;8.252;2023-09-07T00:47:08;100506.00;;;17.60;68.66
46583;BME280;32309;48.858;8.252;2023-09-07T00:49:11;100509.44;;;17.60;68.47
46583;BME280;32309;48.858;8.252;2023-09-07T00:51:15;100503.50;;;17.58;66.38
46583;BME280;32309;48.858;8.252;2023-09-07T00:53:15;100502.69;;;17.58;67.73
46583;BME280;32309;48.858;8.252;2023-09-07T00:55:19;100508.16;;;17.55;67.73
46583;BME280;32309;48.858;8.252;2023-09-07T00:57:21;100504.00;;;17.52;67.51
46583;BME280;32309;48.858;8.252;2023-09-07T00:59:22;100512.28;;;17.48;66.65
46583;BME280;32309;48.858;8.252;2023-09-07T01:01:25;100506.44;;;17.44;67.66
46583;BME280;32309;48.858;8.252;2023-09-07T01:03:26;100514.19;;;17.45;67.85
46583;BME280;32309;48.858;8.252;2023-09-07T01:05:41;100506.31;;;17.45;67.99
46583;BME280;32309;48.858;8.252;2023-09-07T01:07:58;100501.22;;;17.44;67.64
46583;BME280;32309;48.858;8.252;2023-09-07T01:10:16;100506.25;;;17.36;68.63
46583;BME280;32309;48.858;8.252;2023-09-07T01:12:26;100501.25;;;17.33;67.23
46583;BME280;32309;48.858;8.252;2023-09-07T01:14:34;100503.88;;;17.33;67.82
46583;BME280;32309;48.858;8.252;2023-09-07T01:16:37;100503.19;;;17.30;68.94
46583;BME280;32309;48.858;8.252;2023-09-07T01:18:39;100509.38;;;17.29;68.79
46583;BME280;32309;48.858;8.252;2023-09-07T01:20:40;100506.88;;;17.28;68.97
46583;BME280;32309;48.858;8.252;2023-09-07T01:22:47;100507.25;;;17.23;68.52
46583;BME280;32309;48.858;8.252;2023-09-07T01:24:47;100502.13;;;17.22;68.18
46583;BME280;32309;48.858;8.252;2023-09-07T01:26:59;100512.16;;;17.17;68.05
46583;BME280;32309;48.858;8.252;2023-09-07T01:29:01;100509.81;;;17.13;69.03
46583;BME280;32309;48.858;8.252;2023-09-07T01:31:02;100504.91;;;17.09;69.46
46583;BME280;32309;48.858;8.252;2023-09-07T01:33:02;100509.22;;;17.10;69.36
46583;BME280;32309;48.858;8.252;2023-09-07T01:35:05;100515.41;;;17.09;69.21
46583;BME280;32309;48.858;8.252;2023-09-07T01:37:16;100510.75;;;17.12;67.88
46583;BME280;32309;48.858;8.252;2023-09-07T01:39:20;100510.41;;;17.06;67.25
46583;BME280;32309;48.858;8.252;2023-09-07T01:41:20;100515.06;;;17.02;68.21
46583;BME280;32309;48.858;8.252;2023-09-07T01:43:20;100509.13;;;17.00;69.17
46583;BME280;32309;48.858;8.252;2023-09-07T01:45:21;100509.13;;;17.00;68.64
46583;BME280;32309;48.858;8.252;2023-09-07T01:47:22;100505.78;;;16.98;66.89
46583;BME280;32309;48.858;8.252;2023-09-07T01:49:24;100511.16;;;16.96;68.72
46583;BME280;32309;48.858;8.252;2023-09-07T01:51:25;100511.16;;;16.96;66.51
46583;BME280;32309;48.858;8.252;2023-09-07T01:53:27;100498.06;;;16.85;67.10
46583;BME280;32309;48.858;8.252;2023-09-07T01:55:28;100501.59;;;16.63;67.27
46583;BME280;32309;48.858;8.252;2023-09-07T01:57:28;100511.72;;;16.56;67.26
46583;BME280;32309;48.858;8.252;2023-09-07T01:59:33;100501.84;;;16.49;67.34
46583;BME280;32309;48.858;8.252;2023-09-07T02:01:33;100502.31;;;16.31;67.42
46583;BME280;32309;48.858;8.252;2023-09-07T02:03:39;100505.19;;;16.17;69.10
46583;BME280;32309;48.858;8.252;2023-09-07T02:05:40;100501.63;;;16.18;68.94
46583;BME280;32309;48.858;8.252;2023-09-07T02:07:40;100500.91;;;16.16;68.33
46583;BME280;32309;48.858;8.252;2023-09-07T02:09:50;100506.38;;;16.01;70.46
46583;BME280;32309;48.858;8.252;2023-09-07T02:11:54;100501.03;;;16.03;69.25
46583;BME280;32309;48.858;8.252;2023-09-07T02:13:54;100497.59;;;16.02;71.54
46583;BME280;32309;48.858;8.252;2023-09-07T02:15:54;100507.56;;;16.08;68.67
46583;BME280;32309;48.858;8.252;2023-09-07T02:17:58;100505.88;;;16.07;68.76
46583;BME280;32309;48.858;8.252;2023-09-07T02:19:58;100499.72;;;15.97;68.77
46583;BME280;32309;48.858;8.252;2023-09-07T02:21:59;100499.44;;;15.89;68.88
46583;BME280;32309;48.858;8.252;2023-09-07T02:23:59;100507.91;;;15.81;69.70
46583;BME280;32309;48.858;8.252;2023-09-07T02:26:02;100502.69;;;15.81;69.02
46583;BME280;32309;48.858;8.252;2023-09-07T02:28:02;100505.28;;;15.81;69.69
46583;BME280;32309;48.858;8.252;2023-09-07T02:30:03;100506.84;;;15.84;70.74
46583;BME280;32309;48.858;8.252;2023-09-07T02:32:06;100500.19;;;15.91;70.09
46583;BME280;32309;48.858;8.252;2023-09-07T02:34:10;100496.25;;;15.96;69.79
46583;BME280;32309;48.858;8.252;2023-09-07T02:36:12;100505.53;;;16.01;69.59
46583;BME280;32309;48.858;8.252;2023-09-07T02:38:16;100507.44;;;15.99;71.05
46583;BME280;32309;48.858;8.252;2023-09-07T02:40:21;100503.03;;;15.99;68.56
46583;BME280;32309;48.858;8.252;2023-09-07T02:42:21;100506.84;;;15.95;69.37
46583;BME280;32309;48.858;8.252;2023-09-07T02:44:25;100503.16;;;15.97;69.17
46583;BME280;32309;48.858;8.252;2023-09-07T02:46:25;100510.41;;;15.94;68.38
46583;BME280;32309;48.858;8.252;2023-09-07T02:48:25;100513.94;;;15.82;70.18
46583;BME280;32309;48.858;8.252;2023-09-07T02:50:29;100502.69;;;15.81;69.20
46583;BME280;32309;48.858;8.252;2023-09-07T02:52:33;100496.94;;;15.76;70.77
46583;BME280;32309;48.858;8.252;2023-09-07T02:54:33;100499.06;;;15.71;70.23
46583;BME280;32309;48.858;8.252;2023-09-07T02:56:34;100499.88;;;15.60;70.58
46583;BME280;32309;48.858;8.252;2023-09-07T02:58:37;100500.69;;;15.60;71.04
46583;BME280;32309;48.858;8.252;2023-09-07T03:00:41;100504.50;;;15.68;72.13
46583;BME280;32309;48.858;8.252;2023-09-07T03:02:44;100503.22;;;15.73;71.58
46583;BME280;32309;48.858;8.252;2023-09-07T03:04:45;100503.91;;;15.75;70.68
46583;BME280;32309;48.858;8.252;2023-09-07T03:06:50;100513.13;;;15.81;70.48
46583;BME280;32309;48.858;8.252;2023-09-07T03:08:55;100504.09;;;15.85;69.49
46583;BME280;32309;48.858;8.252;2023-09-07T03:11:03;100507.53;;;15.86;69.73
46583;BME280;32309;48.858;8.252;2023-09-07T03:13:07;100505.09;;;15.71;70.51
46583;BME280;32309;48.858;8.252;2023-09-07T03:15:08;100500.00;;;15.70;71.09
46583;BME280;32309;48.858;8.252;2023-09-07T03:17:19;100504.50;;;15.68;70.41
46583;BME280;32309;48.858;8.252;2023-09-07T03:19:20;100505.94;;;15.72;71.20
46583;BME280;32309;48.858;8.252;2023-09-07T03:21:21;100503.44;;;15.70;70.45
46583;BME280;32309;48.858;8.252;2023-09-07T03:23:25;100502.72;;;15.68;70.42
46583;BME280;32309;48.858;8.252;2023-09-07T03:25:30;100499.88;;;15.71;70.37
46583;BME280;32309;48.858;8.252;2023-09-07T03:27:31;100503.78;;;15.66;70.34
46583;BME280;32309;48.858;8.252;2023-09-07T03:29:39;100505.31;;;15.57;70.62
46583;BME280;32309;48.858;8.252;2023-09-07T03:31:41;100499.84;;;15.48;71.11
46583;BME280;32309;48.858;8.252;2023-09-07T03:33:45;100498.50;;;15.43;73.00
46583;BME280;32309;48.858;8.252;2023-09-07T03:35:45;100490.88;;;15.40;71.22
46583;BME280;32309;48.858;8.252;2023-09-07T03:37:46;100498.03;;;15.38;72.30
46583;BME280;32309;48.858;8.252;2023-09-07T03:39:47;100495.78;;;15.44;70.79
46583;BME280;32309;48.858;8.252;2023-09-07T03:41:47;100491.94;;;15.37;72.34
46583;BME280;32309;48.858;8.252;2023-09-07T03:43:47;100487.56;;;15.38;72.60
46583;BME280;32309;48.858;8.252;2023-09-07T03:45:48;100493.88;;;15.46;71.19
46583;BME280;32309;48.858;8.252;2023-09-07T03:47:48;100493.66;;;15.50;72.13
46583;BME280;32309;48.858;8.252;2023-09-07T03:49:49;100490.13;;;15.51;72.85
46583;BME280;32309;48.858;8.252;2023-09-07T03:51:55;100488.66;;;15.46;72.66
46583;BME280;32309;48.858;8.252;2023-09-07T03:53:58;100485.81;;;15.50;71.49
46583;BME280;32309;48.858;8.252;2023-09-07T03:56:01;100490.69;;;15.54;71.08
46583;BME280;32309;48.858;8.252;2023-09-07T03:58:02;100490.94;;;15.51;71.71
46583;BME280;32309;48.858;8.252;2023-09-07T04:00:06;100492.72;;;15.51;72.76
46583;BME280;32309;48.858;8.252;2023-09-07T04:02:08;100496.28;;;15.50;72.98
46583;BME280;32309;48.858;8.252;2023-09-07T04:04:08;100496.16;;;15.51;71.62
46583;BME280;32309;48.858;8.252;2023-09-07T04:06:09;100491.19;;;15.48;71.45
46583;BME280;32309;48.858;8.252;2023-09-07T04:08:09;100490.69;;;15.43;71.39
46583;BME280;32309;48.858;8.252;2023-09-07T04:10:10;100490.41;;;15.35;72.07
46583;BME280;32309;48.858;8.252;2023-09-07T04:12:12;100487.41;;;15.28;71.93
46583;BME280;32309;48.858;8.252;2023-09-07T04:14:13;100489.88;;;15.18;72.68
46583;BME280;32309;48.858;8.252;2023-09-07T04:16:13;100489.63;;;15.10;73.16
46583;BME280;32309;48.858;8.252;2023-09-07T04:18:16;100494.66;;;15.00;73.78
46583;BME280;32309;48.858;8.252;2023-09-07T04:20:18;100497.50;;;14.97;74.97
46583;BME280;32309;48.858;8.252;2023-09-07T04:22:19;100493.56;;;14.91;74.09
46583;BME280;32309;48.858;8.252;2023-09-07T04:24:19;100488.22;;;14.93;75.67
46583;BME280;32309;48.858;8.252;2023-09-07T04:26:22;100490.59;;;14.96;76.28
46583;BME280;32309;48.858;8.252;2023-09-07T04:28:22;100485.88;;;15.01;73.77
46583;BME280;32309;48.858;8.252;2023-09-07T04:30:22;100490.66;;;15.07;75.17
46583;BME280;32309;48.858;8.252;2023-09-07T04:32:43;100478.81;;;15.14;73.69
46583;BME280;32309;48.858;8.252;2023-09-07T04:34:43;100486.31;;;15.19;75.17
46583;BME280;32309;48.858;8.252;2023-09-07T04:36:44;100480.13;;;15.20;73.33
46583;BME280;32309;48.858;8.252;2023-09-07T04:38:44;100484.41;;;15.21;74.19
46583;BME280;32309;48.858;8.252;2023-09-07T04:40:47;100488.59;;;15.24;73.53
46583;BME280;32309;48.858;8.252;2023-09-07T04:42:51;100487.88;;;15.22;74.48
46583;BME280;32309;48.858;8.252;2023-09-07T04:44:51;100487.16;;;15.20;75.11
46583;BME280;32309;48.858;8.252;2023-09-07T04:46:51;100489.66;;;15.21;73.70
46583;BME280;32309;48.858;8.252;2023-09-07T04:48:54;100486.72;;;15.26;74.45
46583;BME280;32309;48.858;8.252;2023-09-07T04:51:01;100482.06;;;15.29;75.06
46583;BME280;32309;48.858;8.252;2023-09-07T04:53:05;100480.31;;;15.30;74.21
46583;BME280;32309;48.858;8.252;2023-09-07T04:55:09;100476.84;;;15.29;73.75
46583;BME280;32309;48.858;8.252;2023-09-07T04:57:10;100485.84;;;15.25;74.53
46583;BME280;32309;48.858;8.252;2023-09-07T04:59:10;100479.94;;;15.23;73.78
46583;BME280;32309;48.858;8.252;2023-09-07T05:01:11;100485.84;;;15.14;73.94
46583;BME280;32309;48.858;8.252;2023-09-07T05:03:12;100485.66;;;15.04;74.80
46583;BME280;32309;48.858;8.252;2023-09-07T05:05:12;100490.38;;;14.99;74.69
46583;BME280;32309;48.858;8.252;2023-09-07T05:07:12;100496.38;;;14.88;74.87
46583;BME280;32309;48.858;8.252;2023-09-07T05:09:13;100497.97;;;14.78;75.55
46583;BME280;32309;48.858;8.252;2023-09-07T05:11:16;100494.97;;;14.71;75.90
46583;BME280;32309;48.858;8.252;2023-09-07T05:13:16;100496.41;;;14.75;76.69
46583;BME280;32309;48.858;8.252;2023-09-07T05:23:02;100494.94;;;14.84;75.76
46583;BME280;32309;48.858;8.252;2023-09-07T05:25:05;100495.78;;;14.85;76.23
46583;BME280;32309;48.858;8.252;2023-09-07T05:27:05;100498.03;;;14.89;75.71
46583;BME280;32309;48.858;8.252;2023-09-07T05:29:06;100509.69;;;14.96;76.09
46583;BME280;32309;48.858;8.252;2023-09-07T05:31:06;100509.38;;;15.01;75.98
46583;BME280;32309;48.858;8.252;2023-09-07T05:33:10;100507.97;;;15.08;76.01
46583;BME280;32309;48.858;8.252;2023-09-07T05:35:12;100511.09;;;15.13;75.90
46583;BME280;32309;48.858;8.252;2023-09-07T05:37:18;100517.28;;;15.12;76.30
46583;BME280;32309;48.858;8.252;2023-09-07T05:39:18;100518.09;;;15.13;76.11
46583;BME280;32309;48.858;8.252;2023-09-07T05:41:18;100511.69;;;15.17;76.34
46583;BME280;32309;48.858;8.252;2023-09-07T05:43:19;100520.03;;;15.22;76.70
46583;BME280;32309;48.858;8.252;2023-09-07T05:45:20;100524.59;;;15.31;76.89
46583;BME280;32309;48.858;8.252;2023-09-07T05:47:21;100524.78;;;15.53;75.97
46583;BME280;32309;48.858;8.252;2023-09-07T05:49:21;100520.72;;;15.84;76.10
46583;BME280;32309;48.858;8.252;2023-09-07T05:51:21;100529.91;;;16.12;75.14
46583;BME280;32309;48.858;8.252;2023-09-07T05:53:22;100529.44;;;16.41;74.57
46583;BME280;32309;48.858;8.252;2023-09-07T05:55:24;100530.72;;;16.70;74.27
46583;BME280;32309;48.858;8.252;2023-09-07T05:57:24;100524.00;;;17.00;73.42
46583;BME280;32309;48.858;8.252;2023-09-07T05:59:27;100526.16;;;17.27;72.57
46583;BME280;32309;48.858;8.252;2023-09-07T06:01:30;100530.94;;;17.54;71.54
46583;BME280;32309;48.858;8.252;2023-09-07T06:03:31;100528.91;;;17.79;70.90
46583;BME280;32309;48.858;8.252;2023-09-07T06:05:41;100526.81;;;18.04;69.76
46583;BME280;32309;48.858;8.252;2023-09-07T06:08:00;100527.63;;;18.25;69.04
46583;BME280;32309;48.858;8.252;2023-09-07T06:10:06;100532.69;;;18.48;68.07
46583;BME280;32309;48.858;8.252;2023-09-07T06:12:07;100535.91;;;18.71;67.21
46583;BME280;32309;48.858;8.252;2023-09-07T06:14:07;100533.34;;;18.91;66.58
46583;BME280;32309;48.858;8.252;2023-09-07T06:16:07;100531.84;;;19.08;66.00
46583;BME280;32309;48.858;8.252;2023-09-07T06:18:22;100529.25;;;19.18;65.17
46583;BME280;32309;48.858;8.252;2023-09-07T06:20:32;100532.28;;;19.23;64.82
46583;BME280;32309;48.858;8.252;2023-09-07T06:22:37;100531.84;;;19.08;64.61
46583;BME280;32309;48.858;8.252;2023-09-07T06:24:40;100540.56;;;18.89;64.79
46583;BME280;32309;48.858;8.252;2023-09-07T06:26:41;100544.34;;;18.75;67.73
46583;BME280;32309;48.858;8.252;2023-09-07T06:28:47;100546.19;;;18.43;67.59
46583;BME280;32309;48.858;8.252;2023-09-07T06:30:49;100538.13;;;18.25;69.05
46583;BME280;32309;48.858;8.252;2023-09-07T06:33:05;100546.47;;;18.09;69.09
46583;BME280;32309;48.858;8.252;2023-09-07T06:35:24;100542.44;;;18.05;68.93
46583;BME280;32309;48.858;8.252;2023-09-07T06:37:37;100542.03;;;18.00;70.14
46583;BME280;32309;48.858;8.252;2023-09-07T06:39:40;100545.91;;;17.85;69.70
46583;BME280;32309;48.858;8.252;2023-09-07T06:41:45;100551.50;;;17.80;70.82
46583;BME280;32309;48.858;8.252;2023-09-07T06:43:48;100547.75;;;17.73;70.74
46583;BME280;32309;48.858;8.252;2023-09-07T06:46:09;100553.25;;;17.70;70.52
46583;BME280;32309;48.858;8.252;2023-09-07T06:48:11;100546.78;;;17.74;70.58
46583;BME280;32309;48.858;8.252;2023-09-07T06:50:15;100550.81;;;17.78;70.59
46583;BME280;32309;48.858;8.252;2023-09-07T06:52:16;100552.34;;;17.80;70.57
46583;BME280;32309;48.858;8.252;2023-09-07T06:54:16;100555.66;;;17.83;70.59
46583;BME280;32309;48.858;8.252;2023-09-07T06:56:24;100560.91;;;17.83;70.67
46583;BME280;32309;48.858;8.252;2023-09-07T06:58:26;100559.13;;;17.83;70.65
46583;BME280;32309;48.858;8.252;2023-09-07T07:00:29;100559.13;;;17.83;70.60
46583;BME280;32309;48.858;8.252;2023-09-07T07:02:30;100559.97;;;17.84;70.80
46583;BME280;32309;48.858;8.252;2023-09-07T07:04:31;100560.22;;;17.80;70.74
46583;BME280;32309;48.858;8.252;2023-09-07T07:06:38;100558.16;;;17.84;70.76
46583;BME280;32309;48.858;8.252;2023-09-07T07:09:01;100559.69;;;17.87;70.65
46583;BME280;32309;48.858;8.252;2023-09-07T07:11:11;100564.13;;;17.86;70.87
46583;BME280;32309;48.858;8.252;2023-09-07T07:13:13;100562.88;;;17.90;71.32
46583;BME280;32309;48.858;8.252;2023-09-07T07:15:16;100562.66;;;17.93;71.00
46583;BME280;32309;48.858;8.252;2023-09-07T07:17:24;100561.19;;;18.01;70.75
46583;BME280;32309;48.858;8.252;2023-09-07T07:19:27;100564.63;;;18.01;71.18
46583;BME280;32309;48.858;8.252;2023-09-07T07:21:30;100563.56;;;18.04;70.93
46583;BME280;32309;48.858;8.252;2023-09-07T07:23:33;100574.47;;;18.09;70.95
46583;BME280;32309;48.858;8.252;2023-09-07T07:25:33;100570.53;;;18.15;70.91
46583;BME280;32309;48.858;8.252;2023-09-07T07:27:37;100559.91;;;18.16;70.81
46583;BME280;32309;48.858;8.252;2023-09-07T07:47:54;100566.50;;;18.82;70.70
46583;BME280;32309;48.858;8.252;2023-09-07T07:57:11;100565.31;;;19.16;69.69
46583;BME280;32309;48.858;8.252;2023-09-07T07:59:34;100563.69;;;19.24;69.70
46583;BME280;32309;48.858;8.252;2023-09-07T08:04:48;100562.97;;;19.42;69.16
46583;BME280;32309;48.858;8.252;2023-09-07T08:06:58;100560.78;;;19.47;68.62
46583;BME280;32309;48.858;8.252;2023-09-07T08:09:03;100569.88;;;19.53;68.17
46583;BME280;32309;48.858;8.252;2023-09-07T08:11:06;100565.34;;;19.55;67.28
46583;BME280;32309;48.858;8.252;2023-09-07T08:28:30;100558.50;;;19.91;67.06
46583;BME280;32309;48.858;8.252;2023-09-07T08:30:52;100569.31;;;19.98;66.57
46583;BME280;32309;48.858;8.252;2023-09-07T08:38:54;100567.31;;;20.20;65.38
46583;BME280;32309;48.858;8.252;2023-09-07T08:48:17;100565.16;;;20.43;64.72
46583;BME280;32309;48.858;8.252;2023-09-07T08:50:13;100567.72;;;20.53;64.75
46583;BME280;32309;48.858;8.252;2023-09-07T08:52:17;100568.13;;;20.58;64.76
46583;BME280;32309;48.858;8.252;2023-09-07T08:54:21;100564.91;;;20.64;64.44
46583;BME280;32309;48.858;8.252;2023-09-07T08:56:32;100566.28;;;20.68;64.38
46583;BME280;32309;48.858;8.252;2023-09-07T08:58:33;100569.84;;;20.77;63.67
46583;BME280;32309;48.858;8.252;2023-09-07T09:00:33;100568.06;;;20.77;63.50
46583;BME280;32309;48.858;8.252;2023-09-07T09:02:34;100563.75;;;20.76;62.71
46583;BME280;32309;48.858;8.252;2023-09-07T09:04:36;100569.94;;;20.85;63.70
46583;BME280;32309;48.858;8.252;2023-09-07T09:06:37;100575.56;;;20.90;63.22
46583;BME280;32309;48.858;8.252;2023-09-07T09:09:01;100573.19;;;20.97;63.31
46583;BME280;32309;48.858;8.252;2023-09-07T09:11:05;100570.41;;;20.99;62.82
46583;BME280;32309;48.858;8.252;2023-09-07T09:13:05;100567.47;;;21.02;63.32
46583;BME280;32309;48.858;8.252;2023-09-07T09:15:06;100573.66;;;21.10;63.44
46583;BME280;32309;48.858;8.252;2023-09-07T09:17:06;100574.28;;;21.22;63.25
46583;BME280;32309;48.858;8.252;2023-09-07T09:19:12;100567.72;;;21.26;62.85
46583;BME280;32309;48.858;8.252;2023-09-07T09:21:14;100564.53;;;21.23;62.54
46583;BME280;32309;48.858;8.252;2023-09-07T09:23:18;100568.84;;;21.24;63.29
46583;BME280;32309;48.858;8.252;2023-09-07T09:25:18;100558.38;;;21.32;63.03
46583;BME280;32309;48.858;8.252;2023-09-07T09:27:24;100558.75;;;21.37;62.76
46583;BME280;32309;48.858;8.252;2023-09-07T09:29:25;100554.81;;;21.41;62.79
46583;BME280;32309;48.858;8.252;2023-09-07T09:31:27;100555.50;;;21.43;63.23
46583;BME280;32309;48.858;8.252;2023-09-07T09:33:32;100553.09;;;21.50;63.47
46583;BME280;32309;48.858;8.252;2023-09-07T09:35:33;100551.88;;;21.63;63.18
46583;BME280;32309;48.858;8.252;2023-09-07T09:37:42;100553.44;;;21.73;62.58
46583;BME280;32309;48.858;8.252;2023-09-07T09:39:47;100543.72;;;21.74;62.87
46583;BME280;32309;48.858;8.252;2023-09-07T09:42:12;100545.06;;;21.78;62.52
46583;BME280;32309;48.858;8.252;2023-09-07T09:44:13;100544.78;;;21.89;62.82
46583;BME280;32309;48.858;8.252;2023-09-07T09:46:26;100546.03;;;22.03;62.30
46583;BME280;32309;48.858;8.252;2023-09-07T09:48:28;100534.19;;;22.07;61.92
46583;BME280;32309;48.858;8.252;2023-09-07T09:50:31;100542.09;;;22.07;62.46
46583;BME280;32309;48.858;8.252;2023-09-07T09:52:38;100538.81;;;22.05;63.12
46583;BME280;32309;48.858;8.252;2023-09-07T09:54:38;100537.16;;;22.04;62.47
46583;BME280;32309;48.858;8.252;2023-09-07T09:56:42;100531.03;;;22.04;62.99
46583;BME280;32309;48.858;8.252;2023-09-07T09:58:43;100534.91;;;22.18;62.81
46583;BME280;32309;48.858;8.252;2023-09-07T10:00:44;100531.66;;;22.32;62.33
46583;BME280;32309;48.858;8.252;2023-09-07T10:02:59;100539.47;;;22.42;62.16
46583;BME280;32309;48.858;8.252;2023-09-07T10:05:05;100529.44;;;22.46;61.92
46583;BME280;32309;48.858;8.252;2023-09-07T10:07:28;100529.63;;;22.52;61.15
46583;BME280;32309;48.858;8.252;2023-09-07T10:09:42;100524.16;;;22.54;61.09
46583;BME280;32309;48.858;8.252;2023-09-07T10:11:51;100522.03;;;22.57;61.80
46583;BME280;32309;48.858;8.252;2023-09-07T10:13:58;100519.25;;;22.67;62.05
46583;BME280;32309;48.858;8.252;2023-09-07T10:16:03;100522.63;;;22.86;61.97
46583;BME280;32309;48.858;8.252;2023-09-07T10:18:17;100519.81;;;22.96;61.67
46583;BME280;32309;48.858;8.252;2023-09-07T10:26:39;100521.47;;;23.13;60.48
46583;BME280;32309;48.858;8.252;2023-09-07T11:57:58;100448.25;;;25.35;54.44
46583;BME280;32309;48.858;8.252;2023-09-07T12:38:59;100417.34;;;26.24;52.07
46583;BME280;32309;48.858;8.252;2023-09-07T12:41:01;100413.31;;;26.28;52.50
46583;BME280;32309;48.858;8.252;2023-09-07T12:43:01;100423.00;;;26.36;52.95
46583;BME280;32309;48.858;8.252;2023-09-07T12:45:05;100420.66;;;26.48;52.75
46583;BME280;32309;48.858;8.252;2023-09-07T12:47:09;100414.75;;;26.52;52.08
46583;BME280;32309;48.858;8.252;2023-09-07T12:49:12;100420.06;;;26.52;52.25
46583;BME280;32309;48.858;8.252;2023-09-07T12:51:15;100423.31;;;26.48;52.28
46583;BME280;32309;48.858;8.252;2023-09-07T12:53:16;100413.69;;;26.47;52.18
46583;BME280;32309;48.858;8.252;2023-09-07T12:55:19;100417.63;;;26.51;51.90
46583;BME280;32309;48.858;8.252;2023-09-07T12:57:23;100410.91;;;26.55;52.38
46583;BME280;32309;48.858;8.252;2023-09-07T12:59:24;100404.03;;;26.61;52.33
46583;BME280;32309;48.858;8.252;2023-09-07T13:01:29;100401.72;;;26.72;52.44
46583;BME280;32309;48.858;8.252;2023-09-07T13:03:30;100403.78;;;26.77;52.20
46583;BME280;32309;48.858;8.252;2023-09-07T13:08:12;100404.28;;;26.87;52.27
46583;BME280;32309;48.858;8.252;2023-09-07T13:10:15;100400.84;;;26.94;51.57
46583;BME280;32309;48.858;8.252;2023-09-07T13:12:19;100404.13;;;26.96;52.01
46583;BME280;32309;48.858;8.252;2023-09-07T13:14:19;100397.84;;;27.03;51.41
46583;BME280;32309;48.858;8.252;2023-09-07T13:16:20;100398.84;;;27.02;51.32
46583;BME280;32309;48.858;8.252;2023-09-07T13:18:20;100396.00;;;27.04;51.71
46583;BME280;32309;48.858;8.252;2023-09-07T13:20:26;100380.28;;;27.09;51.73
46583;BME280;32309;48.858;8.252;2023-09-07T13:22:29;100389.63;;;27.27;51.56
46583;BME280;32309;48.858;8.252;2023-09-07T13:26:58;100384.13;;;27.35;51.26
46583;BME280;32309;48.858;8.252;2023-09-07T13:28:58;100380.53;;;27.43;51.21
46583;BME280;32309;48.858;8.252;2023-09-07T13:31:01;100378.91;;;27.48;50.70
46583;BME280;32309;48.858;8.252;2023-09-07T13:33:11;100381.78;;;27.47;51.11
46583;BME280;32309;48.858;8.252;2023-09-07T13:35:32;100380.34;;;27.51;51.10
46583;BME280;32309;48.858;8.252;2023-09-07T13:37:38;100375.88;;;27.58;50.75
46583;BME280;32309;48.858;8.252;2023-09-07T13:39:41;100376.50;;;27.60;49.84
46583;BME280;32309;48.858;8.252;2023-09-07T13:45:03;100374.28;;;27.64;49.56
46583;BME280;32309;48.858;8.252;2023-09-07T13:49:38;100376.56;;;27.73;48.64
46583;BME280;32309;48.858;8.252;2023-09-07T13:51:41;100367.34;;;27.76;48.81
46583;BME280;32309;48.858;8.252;2023-09-07T13:53:42;100375.13;;;27.71;49.21
46583;BME280;32309;48.858;8.252;2023-09-07T13:55:42;100365.91;;;27.73;49.33
46583;BME280;32309;48.858;8.252;2023-09-07T13:58:03;100369.78;;;27.71;49.28
46583;BME280;32309;48.858;8.252;2023-09-07T14:00:04;100374.75;;;27.81;48.75
46583;BME280;32309;48.858;8.252;2023-09-07T14:02:05;100368.81;;;27.85;48.41
46583;BME280;32309;48.858;8.252;2023-09-07T14:04:06;100371.06;;;27.88;48.39
46583;BME280;32309;48.858;8.252;2023-09-07T14:06:06;100370.25;;;27.88;48.29
46583;BME280;32309;48.858;8.252;2023-09-07T14:08:09;100368.03;;;27.92;48.37
46583;BME280;32309;48.858;8.252;2023-09-07T14:10:23;100370.06;;;27.96;47.51
46583;BME280;32309;48.858;8.252;2023-09-07T14:14:48;100361.69;;;27.93;47.64
46583;BME280;32309;48.858;8.252;2023-09-07T14:16:49;100363.31;;;27.94;47.83
46583;BME280;32309;48.858;8.252;2023-09-07T14:18:50;100369.69;;;27.99;47.98
46583;BME280;32309;48.858;8.252;2023-09-07T14:20:53;100358.00;;;28.00;47.64